Adamsville, AL (35005)

10:26 PM CDT on August 26, 2016 (GMT -0500)
Pinewood | | Change Station

Elev 600 ft 33.47 °N, 87.02 °W | Updated 4 seconds ago

Clear
Clear
76.1 °F
Feels Like 76 °F
N
0.0
Wind Variable Wind from WSW
Gusts 0.0 mph

Today
High -- | Low -- °F
--% Chance of Precip.
Yesterday
High -- | Low -- °F
Precip. -- in
Pressure 30.05 in
Visibility 10.0 miles
Clouds Clear
Heat Index 76 °F
Dew Point 74 °F
Humidity 93%
Rainfall 0.02 in
Snow Depth Not available.
6:18 AM 7:20 PM
Waning Crescent, 28% visible
METAR KBHM 270253Z 00000KT 10SM CLR 26/23 A3008 RMK AO2 SLP176 T02610228 50009
Pressure 30.05 in
Visibility 10.0 miles
Clouds Clear
Heat Index 76 °F
Dew Point 74 °F
Humidity 93%
Rainfall 0.02 in
Snow Depth Not available.
6:18 AM 7:20 PM
Waning Crescent, 28% visible
METAR KBHM 270253Z 00000KT 10SM CLR 26/23 A3008 RMK AO2 SLP176 T02610228 50009

10-Day Weather Forecast

Almanac

Astronomy

Aug. 26, 2016 Rise Set
Actual Time
Civil Twilight
Nautical Twilight
Astronomical Twilight
Moon
Length of Visible Light
Length of Day
Tomorrow will be .
, % of the Moon is Illuminated

Today's Extremes

State Highs State Lows

Community

WunderPhotos

Upload Photos

1,935,288 photos uploaded!

WunderBlog® & News

Nearby

Air Quality

  Air Quality AQ Index Pollutant
Not available.

Snow Depth

Station Depth Elevation

Earthquake Activity

City Distance Mag. Time & Date
Minimum magnitude displayed is 2.5.

Coastal Water Temperatures

Place Temperature

Stations

Nearby Weather Stations

Station Location Temp. Windchill Dew Point Humidity Wind Precip. Elev Updated Type
                   

Watches & Warnings

There are currently no watches in effect.